Time;durP1;ratioP1;P1;durP2;ratioP2;P2;SDS_P1;SDS_P2;PMS_P1;PMS_P2;Temp;Humidity;BMP_temperature;BMP_pressure;BME280_temperature;BME280_humidity;BME280_pressure;Samples;Min_cycle;Max_cycle;Signal;HPM_P1;HPM_P2
2022/06/12 07:59:00;;;;;;;13.05;6.70;;;;;;;17.47;69.34;102177.78;5264804;28;20922;-77
2022/06/12 08:01:32;;;;;;;12.70;5.35;;;;;;;17.57;68.19;102180.44;5251521;28;20058;-78
2022/06/12 08:04:08;;;;;;;12.93;5.80;;;;;;;17.69;68.52;102180.81;5251701;28;20095;-77
2022/06/12 08:06:39;;;;;;;13.13;5.95;;;;;;;17.79;67.92;102180.66;5247356;28;20506;-78
2022/06/12 08:09:11;;;;;;;13.85;5.10;;;;;;;17.92;66.45;102181.00;5248339;28;20033;-76
2022/06/12 08:11:44;;;;;;;10.20;4.80;;;;;;;18.14;66.54;102177.53;5254935;28;20034;-77
2022/06/12 08:14:18;;;;;;;17.02;6.32;;;;;;;18.20;67.39;102176.28;5250187;28;20047;-78
2022/06/12 08:16:50;;;;;;;14.10;5.80;;;;;;;18.27;66.06;102184.31;5245909;28;20038;-78
2022/06/12 08:22:12;;;;;;;13.80;5.20;;;;;;;18.45;66.73;102169.34;5252630;28;20033;-76
2022/06/12 08:24:43;;;;;;;9.75;5.38;;;;;;;18.40;65.58;102175.06;5250742;28;20393;-75
2022/06/12 08:27:15;;;;;;;12.65;5.20;;;;;;;18.35;65.02;102169.53;5246212;28;20481;-78
2022/06/12 08:29:49;;;;;;;14.63;6.70;;;;;;;18.41;65.22;102174.75;5248059;28;20025;-78
2022/06/12 08:32:21;;;;;;;17.77;6.35;;;;;;;18.40;65.73;102175.06;5253400;28;20028;-75
2022/06/12 08:35:03;;;;;;;13.75;6.28;;;;;;;18.45;66.03;102177.75;5252109;28;20037;-76
2022/06/12 08:37:37;;;;;;;12.63;5.25;;;;;;;18.47;65.99;102172.69;5255009;28;20052;-78
2022/06/12 08:40:24;;;;;;;11.82;5.40;;;;;;;18.26;64.22;102180.66;5249827;28;20026;-77
2022/06/12 08:43:37;;;;;;;13.10;5.05;;;;;;;18.27;64.59;102178.69;5251784;28;20029;-78
2022/06/12 08:46:15;;;;;;;13.55;4.90;;;;;;;18.15;63.19;102177.22;5253840;28;21127;-77
2022/06/12 08:48:53;;;;;;;14.32;6.45;;;;;;;18.08;64.08;102171.16;5252850;28;20539;-78
2022/06/12 08:51:34;;;;;;;11.52;5.15;;;;;;;18.13;64.47;102171.09;5242920;28;20481;-77
2022/06/12 08:54:14;;;;;;;13.20;5.07;;;;;;;18.23;63.68;102164.44;5253414;28;20026;-79
2022/06/12 08:56:58;;;;;;;8.57;3.88;;;;;;;18.32;62.64;102167.34;5252002;28;20042;-78
2022/06/12 08:59:38;;;;;;;11.57;5.55;;;;;;;18.37;63.76;102159.66;5242808;28;20497;-77
2022/06/12 09:02:33;;;;;;;13.13;6.43;;;;;;;18.52;63.70;102155.72;5254147;28;20452;-78
2022/06/12 09:05:08;;;;;;;12.52;4.95;;;;;;;18.67;63.22;102151.75;5244406;28;20057;-76
2022/06/12 09:07:51;;;;;;;14.93;5.95;;;;;;;18.80;61.85;102158.56;5258277;28;20025;-75
2022/06/12 09:10:36;;;;;;;10.32;4.55;;;;;;;18.62;62.51;102152.69;5241575;28;20025;-77
2022/06/12 09:13:19;;;;;;;12.10;5.72;;;;;;;18.67;62.87;102149.78;5232129;28;20026;-77
2022/06/12 09:15:58;;;;;;;12.50;4.70;;;;;;;18.96;61.27;102147.81;5235547;28;20033;-77
2022/06/12 09:18:54;;;;;;;10.30;4.65;;;;;;;19.10;59.79;102143.81;5228305;28;20038;-77
2022/06/12 09:21:39;;;;;;;8.68;3.70;;;;;;;19.13;56.67;102144.34;5232827;28;20477;-76
2022/06/12 09:24:47;;;;;;;12.13;4.72;;;;;;;19.38;56.30;102140.06;5239316;28;20477;-77
2022/06/12 09:28:03;;;;;;;11.02;4.28;;;;;;;19.25;56.70;102144.59;5228545;28;20061;-77
2022/06/12 09:30:49;;;;;;;9.27;3.40;;;;;;;19.32;55.58;102142.19;5243153;28;20033;-77
2022/06/12 09:33:39;;;;;;;13.98;4.38;;;;;;;19.54;56.52;102144.19;5239514;28;20085;-81
2022/06/12 09:36:17;;;;;;;14.38;4.63;;;;;;;19.59;55.73;102140.41;5238439;28;20022;-81
2022/06/12 09:39:25;;;;;;;10.98;3.90;;;;;;;19.76;56.04;102134.91;5238387;28;20041;-80
2022/06/12 09:42:22;;;;;;;9.80;4.65;;;;;;;20.03;55.46;102142.38;5234105;28;20030;-81
2022/06/12 09:45:07;;;;;;;11.23;4.93;;;;;;;20.00;56.07;102142.19;5234527;28;20029;-80
2022/06/12 09:47:48;;;;;;;11.45;4.93;;;;;;;19.97;53.49;102140.88;5226397;28;20073;-77
2022/06/12 09:50:36;;;;;;;10.25;4.38;;;;;;;20.08;53.08;102138.59;5240855;28;20025;-81
2022/06/12 09:53:17;;;;;;;10.38;5.82;;;;;;;19.97;54.56;102147.31;5228469;28;20034;-85
2022/06/12 09:56:04;;;;;;;8.50;4.75;;;;;;;19.97;55.19;102144.50;5237946;28;20036;-82
2022/06/12 09:59:01;;;;;;;9.43;4.55;;;;;;;19.95;55.23;102145.97;5242491;28;20056;-81
2022/06/12 10:01:38;;;;;;;8.38;4.25;;;;;;;19.86;54.27;102147.91;5243143;28;20248;-83
2022/06/12 10:04:14;;;;;;;10.88;5.20;;;;;;;19.57;55.81;102143.53;5244152;28;20017;-81
2022/06/12 10:06:54;;;;;;;11.68;4.60;;;;;;;19.74;56.36;102137.25;5245340;28;20037;-79
2022/06/12 10:09:48;;;;;;;13.00;4.90;;;;;;;19.90;54.90;102130.03;5242815;28;20113;-81
2022/06/12 10:12:27;;;;;;;9.45;4.22;;;;;;;19.89;54.66;102136.84;5250998;28;20078;-79
2022/06/12 10:15:08;;;;;;;13.65;4.60;;;;;;;19.85;54.52;102135.81;5238339;28;20101;-80
2022/06/12 10:17:56;;;;;;;11.23;5.45;;;;;;;19.86;54.42;102134.66;5242356;28;20042;-80
2022/06/12 10:20:32;;;;;;;11.55;4.95;;;;;;;19.97;54.31;102119.16;5240174;28;20032;-81
2022/06/12 10:23:03;;;;;;;12.18;4.63;;;;;;;19.92;53.97;102121.28;5223033;28;20225;-84
2022/06/12 10:25:42;;;;;;;19.33;13.95;;;;;;;19.91;53.74;102126.06;5244042;28;20125;-83
2022/06/12 10:28:16;;;;;;;12.48;5.32;;;;;;;20.06;54.25;102115.56;5237247;28;20029;-84
2022/06/12 10:31:08;;;;;;;9.30;5.35;;;;;;;20.06;54.62;102121.19;5253731;28;20471;-70
2022/06/12 10:34:14;;;;;;;14.05;4.97;;;;;;;20.09;54.93;102117.72;5242780;28;20036;-75
2022/06/12 10:36:46;;;;;;;12.02;4.10;;;;;;;20.02;55.93;102118.19;5228836;28;20060;-78
2022/06/12 10:39:24;;;;;;;14.52;5.22;;;;;;;20.03;55.76;102113.41;5248355;28;20022;-80
2022/06/12 10:42:01;;;;;;;14.20;4.55;;;;;;;20.16;54.77;102118.91;5236813;28;20032;-79
2022/06/12 10:44:41;;;;;;;8.75;4.05;;;;;;;20.31;54.07;102112.03;5234354;28;20029;-78
2022/06/12 10:47:25;;;;;;;10.65;4.00;;;;;;;20.10;53.58;102117.41;5241040;28;20124;-79
2022/06/12 10:50:03;;;;;;;9.27;3.83;;;;;;;19.97;53.89;102119.16;5237692;28;20029;-80
2022/06/12 10:52:34;;;;;;;9.02;4.10;;;;;;;19.97;54.57;102118.34;5241377;28;20160;-80
2022/06/12 10:55:11;;;;;;;10.48;3.90;;;;;;;20.03;53.91;102117.03;5231544;28;20112;-81
2022/06/12 10:58:19;;;;;;;7.78;3.53;;;;;;;20.14;54.32;102121.22;5220524;28;20422;-81
2022/06/12 11:00:54;;;;;;;12.15;4.43;;;;;;;20.00;53.66;102109.25;5229000;28;20076;-81
2022/06/12 11:04:04;;;;;;;11.18;4.53;;;;;;;20.17;53.06;102108.47;5233335;28;20029;-81
2022/06/12 11:06:54;;;;;;;8.75;3.25;;;;;;;20.48;52.93;102116.03;5226173;28;20033;-81
2022/06/12 11:10:01;;;;;;;10.73;4.00;;;;;;;20.36;51.99;102108.25;5231942;28;20026;-78
2022/06/12 11:13:25;;;;;;;9.45;3.42;;;;;;;20.67;51.52;102105.38;5237600;28;20397;-79
2022/06/12 11:15:59;;;;;;;8.63;3.88;;;;;;;20.83;50.35;102105.72;5199762;28;20490;-80
2022/06/12 11:18:46;;;;;;;8.80;3.78;;;;;;;21.08;51.20;102103.28;5234428;28;20108;-80
2022/06/12 11:21:28;;;;;;;7.38;3.13;;;;;;;21.02;49.53;102109.06;5231504;28;20049;-79
2022/06/12 11:24:11;;;;;;;9.90;3.38;;;;;;;21.14;50.36;102105.63;5233172;28;20053;-78
2022/06/12 11:27:33;;;;;;;8.15;3.15;;;;;;;21.00;49.98;102110.56;5233463;28;20109;-78
2022/06/12 11:30:23;;;;;;;9.98;3.22;;;;;;;20.88;50.12;102101.94;5235581;28;20039;-81
2022/06/12 11:33:12;;;;;;;5.88;2.70;;;;;;;20.92;50.95;102102.94;5232574;28;20033;-74
2022/06/12 11:36:07;;;;;;;8.73;3.70;;;;;;;20.65;49.86;102099.22;5234487;28;20038;-85
2022/06/12 11:39:03;;;;;;;8.75;2.95;;;;;;;20.59;50.29;102097.72;5224868;28;20042;-81
2022/06/12 11:42:00;;;;;;;10.73;3.30;;;;;;;20.61;50.80;102101.06;5236829;28;20038;-80
2022/06/12 11:44:50;;;;;;;8.18;3.45;;;;;;;20.58;50.44;102093.22;5231343;28;20497;-76
2022/06/12 11:47:44;;;;;;;8.38;3.83;;;;;;;20.54;50.79;102086.59;5238358;28;20033;-76
2022/06/12 11:50:44;;;;;;;7.72;3.72;;;;;;;20.49;49.44;102084.75;5232276;28;20028;-73
2022/06/12 11:53:55;;;;;;;7.78;2.92;;;;;;;20.95;49.81;102083.34;5228073;28;20111;-83
2022/06/12 11:56:47;;;;;;;7.10;2.97;;;;;;;21.25;48.77;102077.91;5246447;28;20103;-83
2022/06/12 11:59:30;;;;;;;8.27;2.97;;;;;;;21.51;48.20;102068.59;5240510;28;20415;-83
2022/06/12 12:02:12;;;;;;;8.07;3.45;;;;;;;21.58;46.90;102081.03;5236818;28;20116;-83
2022/06/12 12:04:55;;;;;;;9.18;3.47;;;;;;;21.47;46.53;102074.06;5236328;28;20026;-83
2022/06/12 12:07:56;;;;;;;7.60;3.10;;;;;;;21.20;47.39;102075.25;5233799;28;20028;-83
2022/06/12 12:10:34;;;;;;;6.15;2.85;;;;;;;20.81;47.24;102066.59;5226413;28;20049;-83
2022/06/12 12:13:12;;;;;;;5.40;2.80;;;;;;;21.07;46.90;102071.44;5236353;28;20033;-82
2022/06/12 12:15:50;;;;;;;7.20;2.88;;;;;;;21.27;47.04;102062.28;5230645;28;20034;-83
2022/06/12 12:18:50;;;;;;;12.70;3.70;;;;;;;21.25;47.09;102058.97;5228770;28;20029;-83
2022/06/12 12:21:35;;;;;;;9.50;4.45;;;;;;;21.32;47.97;102060.44;5221655;28;20097;-83
2022/06/12 12:24:15;;;;;;;7.23;3.00;;;;;;;21.52;47.90;102059.78;5229032;28;20034;-81
2022/06/12 12:26:49;;;;;;;9.55;3.60;;;;;;;21.74;47.19;102060.75;5230895;28;20113;-82
2022/06/12 12:29:26;;;;;;;7.80;3.40;;;;;;;21.42;47.11;102071.41;5226173;28;20081;-83
2022/06/12 12:31:58;;;;;;;9.05;3.35;;;;;;;21.51;47.96;102055.31;5241312;28;20140;-83
2022/06/12 12:34:31;;;;;;;7.38;3.17;;;;;;;21.53;47.81;102053.00;5238103;28;20067;-78
2022/06/12 12:42:47;;;;;;;7.00;3.40;;;;;;;21.86;46.86;102060.88;5230850;28;20033;-78
2022/06/12 12:45:21;;;;;;;8.55;3.75;;;;;;;21.66;46.46;102059.59;5239853;28;20025;-78
2022/06/12 12:48:07;;;;;;;8.73;3.38;;;;;;;21.45;47.68;102056.66;5235544;28;20045;-77
2022/06/12 12:50:51;;;;;;;8.45;3.33;;;;;;;21.50;47.73;102048.03;5235952;28;20030;-81
2022/06/12 12:53:28;;;;;;;7.55;3.03;;;;;;;21.47;47.24;102057.13;5242681;28;20036;-82
2022/06/12 12:56:01;;;;;;;9.00;3.03;;;;;;;21.70;47.53;102057.75;5243261;28;20030;-84
2022/06/12 12:58:39;;;;;;;7.30;2.80;;;;;;;21.99;46.54;102050.53;5236311;28;20066;-82
2022/06/12 13:01:20;;;;;;;11.85;3.25;;;;;;;22.24;46.52;102046.78;5230344;28;20028;-82
2022/06/12 13:04:22;;;;;;;7.88;2.70;;;;;;;22.20;45.17;102050.63;5238782;28;20439;-82
2022/06/12 13:07:06;;;;;;;4.72;2.55;;;;;;;22.20;44.90;102045.78;5234711;28;20133;-83
2022/06/12 13:09:55;;;;;;;7.30;3.15;;;;;;;22.12;43.20;102043.81;5245802;28;20030;-82
2022/06/12 13:13:05;;;;;;;6.05;2.65;;;;;;;22.30;43.68;102048.22;5231455;28;20021;-83
2022/06/12 13:15:49;;;;;;;5.32;2.72;;;;;;;22.32;42.96;102028.13;5213079;28;20487;-82
2022/06/12 13:19:08;;;;;;;7.03;2.60;;;;;;;22.26;43.34;102033.13;5236582;28;20477;-81
2022/06/12 13:22:19;;;;;;;8.13;4.68;;;;;;;22.37;43.29;102033.56;5241846;28;20071;-82
2022/06/12 13:25:00;;;;;;;7.55;3.47;;;;;;;22.59;42.84;102032.41;5242661;28;20053;-83
2022/06/12 13:27:34;;;;;;;4.60;3.42;;;;;;;22.58;41.94;102023.13;5247944;28;20068;-74
2022/06/12 13:30:20;;;;;;;11.25;2.97;;;;;;;22.69;42.03;102034.84;5241594;28;20640;-75
2022/06/12 13:32:52;;;;;;;6.78;2.45;;;;;;;22.63;41.39;102026.91;5242407;28;20037;-75
2022/06/12 13:35:31;;;;;;;5.03;3.03;;;;;;;22.52;41.60;102027.31;5236182;28;20418;-74
2022/06/12 13:38:05;;;;;;;4.10;2.13;;;;;;;22.63;42.22;102026.91;5232907;28;20451;-75
2022/06/12 13:40:40;;;;;;;6.15;2.78;;;;;;;22.87;42.30;102023.41;5236681;28;20026;-75
2022/06/12 13:43:13;;;;;;;;;;;;;;;23.16;40.96;102017.69;5241395;28;20037;-74
2022/06/12 13:45:57;;;;;;;7.10;4.90;;;;;;;23.07;40.80;102016.94;5244232;28;20014;-75
2022/06/12 13:48:36;;;;;;;5.30;3.03;;;;;;;22.91;40.72;102019.53;5235650;28;20021;-78
2022/06/12 13:51:29;;;;;;;7.90;2.65;;;;;;;22.90;40.76;102011.38;5232705;28;20529;-84
2022/06/12 13:54:24;;;;;;;8.57;2.85;;;;;;;23.17;40.46;102005.19;5232139;28;20038;-83
2022/06/12 13:57:11;;;;;;;4.35;2.97;;;;;;;22.79;40.44;101992.00;5230809;28;20335;-83
2022/06/12 13:59:46;;;;;;;6.32;2.13;;;;;;;22.44;40.86;101994.28;5237056;28;20026;-77
2022/06/12 14:02:23;;;;;;;;;;;;;;;22.53;40.67;102003.53;5232279;28;20083;-75
2022/06/12 14:05:24;;;;;;;6.85;2.40;;;;;;;22.35;41.59;101997.16;5225405;28;19963;-76
2022/06/12 14:07:58;;;;;;;6.68;4.55;;;;;;;22.13;40.66;101998.25;5224738;28;20077;-76
2022/06/12 14:10:36;;;;;;;3.95;2.15;;;;;;;22.28;40.65;101998.88;5227133;28;20060;-77
2022/06/12 14:13:14;;;;;;;4.03;2.10;;;;;;;22.49;40.95;101998.91;5232683;28;20029;-77
2022/06/12 14:15:48;;;;;;;6.43;2.63;;;;;;;22.65;41.00;101988.66;5230918;28;20026;-78
2022/06/12 14:18:29;;;;;;;7.05;2.47;;;;;;;22.70;40.96;101991.28;5237311;28;20059;-78
2022/06/12 14:21:18;;;;;;;9.00;2.97;;;;;;;22.64;40.82;101988.97;5238376;28;20424;-77
2022/06/12 14:23:53;;;;;;;8.75;2.70;;;;;;;22.65;40.57;101990.63;5221378;28;20030;-77
2022/06/12 14:26:30;;;;;;;;;;;;;;;23.38;40.43;101987.31;5232120;28;20040;-78
2022/06/12 14:29:24;;;;;;;3.28;1.95;;;;;;;22.93;40.24;101983.25;5234031;28;20029;-78
2022/06/12 14:32:15;;;;;;;5.07;2.25;;;;;;;22.71;41.43;101981.59;5226807;28;20385;-76
2022/06/12 14:35:04;;;;;;;6.15;2.58;;;;;;;22.84;41.31;101988.16;5235822;28;20029;-75
2022/06/12 14:37:41;;;;;;;5.78;2.53;;;;;;;22.87;39.76;101981.78;5229984;28;20440;-79
2022/06/12 14:40:38;;;;;;;5.28;2.00;;;;;;;22.70;39.87;101979.09;5229854;28;20091;-75
2022/06/12 14:43:12;;;;;;;4.30;1.70;;;;;;;22.66;40.79;101984.63;5237593;28;20069;-75
2022/06/12 14:45:49;;;;;;;3.97;1.73;;;;;;;22.91;40.95;101988.44;5229606;28;20037;-75
2022/06/12 14:48:24;;;;;;;5.75;2.10;;;;;;;22.73;40.38;101987.75;5230876;28;20026;-75
2022/06/12 14:50:57;;;;;;;7.28;2.00;;;;;;;23.06;40.21;101986.13;5241770;28;20030;-75
2022/06/12 14:53:29;;;;;;;5.30;2.08;;;;;;;23.25;39.69;101975.13;5231722;28;20529;-74
2022/06/12 14:56:03;;;;;;;5.03;2.17;;;;;;;23.52;39.54;101978.50;5235493;28;20116;-75
2022/06/12 14:58:38;;;;;;;5.15;3.30;;;;;;;23.33;40.04;101979.06;5222212;28;20049;-75
2022/06/12 15:01:13;;;;;;;2.67;1.58;;;;;;;22.63;39.90;101973.22;5235762;28;20527;-75
2022/06/12 15:03:45;;;;;;;4.85;2.38;;;;;;;22.83;40.46;101972.38;5241075;28;20029;-75
2022/06/12 15:06:17;;;;;;;3.67;1.85;;;;;;;23.01;40.51;101973.06;5239651;28;20026;-75
2022/06/12 15:08:49;;;;;;;5.90;2.10;;;;;;;23.10;40.55;101975.78;5232610;28;20083;-75
2022/06/12 15:11:24;;;;;;;5.65;2.58;;;;;;;22.89;40.20;101970.16;5230725;28;20413;-74
2022/06/12 15:13:56;;;;;;;3.88;1.90;;;;;;;22.84;40.88;101974.00;5233939;28;20025;-75
2022/06/12 15:16:29;;;;;;;3.95;2.50;;;;;;;22.67;41.37;101974.16;5232083;28;20022;-75
2022/06/12 15:19:07;;;;;;;4.30;2.38;;;;;;;22.53;40.71;101975.25;5233349;28;20041;-75
2022/06/12 15:21:42;;;;;;;7.00;2.40;;;;;;;22.82;40.22;101976.34;5229942;28;20111;-75
2022/06/12 15:24:20;;;;;;;6.45;2.55;;;;;;;22.89;40.39;101970.97;5232218;28;20032;-72
2022/06/12 15:29:47;;;;;;;5.75;2.08;;;;;;;23.18;40.65;101967.19;5239887;28;20092;-72
2022/06/12 15:32:27;;;;;;;3.57;2.07;;;;;;;22.83;39.27;101966.72;5240961;28;20033;-72
2022/06/12 15:35:03;;;;;;;3.10;2.05;;;;;;;22.96;40.08;101976.06;5238867;28;20028;-72
2022/06/12 15:37:35;;;;;;;2.67;1.60;;;;;;;22.75;40.17;101970.41;5238285;28;20033;-73
2022/06/12 15:40:13;;;;;;;4.80;2.45;;;;;;;22.93;40.78;101968.25;5232041;28;20492;-72
2022/06/12 15:42:45;;;;;;;3.65;2.67;;;;;;;22.91;40.41;101974.28;5237135;28;20485;-73
2022/06/12 15:45:16;;;;;;;4.47;1.90;;;;;;;22.51;39.89;101965.47;5224799;28;20029;-72
2022/06/12 15:47:48;;;;;;;4.28;2.53;;;;;;;22.36;40.51;101970.56;5231828;28;20025;-72
2022/06/12 15:50:19;;;;;;;4.55;2.38;;;;;;;22.17;40.72;101980.66;5231849;28;20032;-73
2022/06/12 15:52:50;;;;;;;5.72;2.58;;;;;;;22.42;41.57;101974.03;5232502;28;20026;-72
2022/06/12 15:55:22;;;;;;;3.88;1.73;;;;;;;22.12;40.12;101971.19;5232917;28;20067;-72
2022/06/12 15:57:53;;;;;;;5.82;1.75;;;;;;;22.06;40.58;101969.75;5231275;28;20163;-72
2022/06/12 16:00:28;;;;;;;3.63;1.70;;;;;;;22.11;40.77;101969.53;5240329;28;20020;-72
2022/06/12 16:03:00;;;;;;;4.90;2.40;;;;;;;22.11;40.77;101969.53;5235848;28;20429;-73
2022/06/12 16:05:32;;;;;;;4.60;2.50;;;;;;;21.70;40.59;101959.78;5231771;28;20029;-72
2022/06/12 16:08:04;;;;;;;5.60;3.67;;;;;;;21.74;40.08;101971.22;5225787;28;20071;-72
2022/06/12 16:10:37;;;;;;;4.30;2.65;;;;;;;21.74;39.39;101959.94;5231832;28;20029;-72
2022/06/12 16:13:08;;;;;;;4.50;2.10;;;;;;;21.62;39.79;101962.63;5232723;28;20036;-72
2022/06/12 16:15:40;;;;;;;4.70;1.90;;;;;;;21.86;39.58;101960.03;5239105;28;20481;-72
2022/06/12 16:18:11;;;;;;;3.92;2.17;;;;;;;21.93;39.03;101960.34;5239632;28;20029;-73
2022/06/12 16:20:42;;;;;;;3.88;2.30;;;;;;;22.08;38.61;101958.91;5236118;28;20029;-72
2022/06/12 16:23:14;;;;;;;3.17;1.90;;;;;;;22.32;38.06;101966.78;5247255;28;20480;-73
2022/06/12 16:25:49;;;;;;;3.13;2.10;;;;;;;22.54;37.84;101959.94;5235686;28;20481;-73
2022/06/12 16:28:23;;;;;;;6.72;3.03;;;;;;;22.44;38.00;101963.19;5239332;28;20034;-73
2022/06/12 16:30:54;;;;;;;6.20;2.63;;;;;;;22.86;37.92;101965.19;5241747;28;20038;-73
2022/06/12 16:33:26;;;;;;;4.05;2.15;;;;;;;22.67;37.88;101957.19;5249149;28;20485;-73
2022/06/12 16:36:00;;;;;;;5.45;2.33;;;;;;;22.90;38.15;101952.81;5236468;28;20052;-73
2022/06/12 16:38:32;;;;;;;6.55;2.42;;;;;;;22.80;37.93;101956.06;5242823;28;20034;-74
2022/06/12 16:41:03;;;;;;;5.15;2.58;;;;;;;22.22;38.45;101955.88;5243610;28;20033;-73
2022/06/12 16:43:35;;;;;;;8.45;3.80;;;;;;;22.56;38.78;101957.59;5243867;28;20018;-73
2022/06/12 16:46:06;;;;;;;4.40;3.25;;;;;;;22.58;38.27;101955.25;5239222;28;20021;-77
2022/06/12 16:48:37;;;;;;;6.18;2.80;;;;;;;22.58;38.34;101952.44;5236250;28;20125;-77
2022/06/12 16:51:12;;;;;;;6.88;2.83;;;;;;;22.86;37.90;101951.88;5242162;28;20033;-77
2022/06/12 16:53:43;;;;;;;5.78;2.35;;;;;;;22.85;37.96;101943.72;5243266;28;20038;-77
2022/06/12 16:56:14;;;;;;;5.20;2.55;;;;;;;22.52;38.51;101947.31;5235965;28;20044;-77
2022/06/12 16:58:45;;;;;;;4.97;3.33;;;;;;;22.66;38.55;101950.72;5235586;28;20050;-77
2022/06/12 17:01:17;;;;;;;6.40;3.92;;;;;;;22.42;38.88;101940.13;5242762;28;20128;-77
2022/06/12 17:03:48;;;;;;;5.93;2.72;;;;;;;22.56;39.17;101934.16;5243820;28;20030;-77
2022/06/12 17:06:21;;;;;;;6.55;3.00;;;;;;;22.45;39.29;101933.75;5235016;28;20483;-76
2022/06/12 17:08:52;;;;;;;4.47;2.58;;;;;;;22.83;39.05;101931.91;5238629;28;20025;-76
2022/06/12 17:11:23;;;;;;;5.28;2.30;;;;;;;22.51;39.27;101929.53;5236413;28;20052;-77
2022/06/12 17:13:55;;;;;;;11.48;3.03;;;;;;;22.68;39.32;101937.06;5234806;28;20038;-78
2022/06/12 17:16:26;;;;;;;7.03;2.90;;;;;;;22.77;39.26;101934.16;5235488;28;20076;-76
2022/06/12 17:21:48;;;;;;;7.55;2.50;;;;;;;22.31;39.84;101934.00;5242763;28;20053;-77
2022/06/12 17:24:19;;;;;;;5.22;2.58;;;;;;;22.52;40.49;101936.03;5243908;28;20492;-79
2022/06/12 17:26:50;;;;;;;6.70;2.83;;;;;;;22.30;39.84;101931.56;5231247;28;20047;-81
2022/06/12 17:29:22;;;;;;;5.18;2.40;;;;;;;22.07;40.30;101936.66;5239188;28;20026;-81
